sensor_id;sensor_type;location;lat;lon;timestamp;temperature;humidity
35559;DHT22;21661;50.794;-1.066;2023-02-08T00:01:53;4.00;99.90
35559;DHT22;21661;50.794;-1.066;2023-02-08T00:04:18;4.00;99.90
35559;DHT22;21661;50.794;-1.066;2023-02-08T00:06:44;4.00;99.90
35559;DHT22;21661;50.794;-1.066;2023-02-08T00:09:09;4.00;99.90
35559;DHT22;21661;50.794;-1.066;2023-02-08T00:11:35;4.00;99.90
35559;DHT22;21661;50.794;-1.066;2023-02-08T00:14:01;4.00;99.90
35559;DHT22;21661;50.794;-1.066;2023-02-08T00:16:26;4.00;99.90
35559;DHT22;21661;50.794;-1.066;2023-02-08T00:18:52;4.00;99.90
35559;DHT22;21661;50.794;-1.066;2023-02-08T00:21:18;3.90;99.90
35559;DHT22;21661;50.794;-1.066;2023-02-08T00:23:44;3.90;99.90
35559;DHT22;21661;50.794;-1.066;2023-02-08T00:26:11;3.90;99.90
35559;DHT22;21661;50.794;-1.066;2023-02-08T00:28:37;3.90;99.90
35559;DHT22;21661;50.794;-1.066;2023-02-08T00:31:03;3.90;99.90
35559;DHT22;21661;50.794;-1.066;2023-02-08T00:33:28;3.90;99.90
35559;DHT22;21661;50.794;-1.066;2023-02-08T00:35:58;3.90;99.90
35559;DHT22;21661;50.794;-1.066;2023-02-08T00:38:24;3.90;99.90
35559;DHT22;21661;50.794;-1.066;2023-02-08T00:40:50;3.90;99.90
35559;DHT22;21661;50.794;-1.066;2023-02-08T00:43:15;4.00;99.90
35559;DHT22;21661;50.794;-1.066;2023-02-08T00:45:41;3.90;99.90
35559;DHT22;21661;50.794;-1.066;2023-02-08T00:48:07;4.00;99.90
35559;DHT22;21661;50.794;-1.066;2023-02-08T00:50:32;4.00;99.90
35559;DHT22;21661;50.794;-1.066;2023-02-08T00:52:58;4.00;99.90
35559;DHT22;21661;50.794;-1.066;2023-02-08T00:55:24;4.10;99.90
35559;DHT22;21661;50.794;-1.066;2023-02-08T00:57:50;4.10;99.90
35559;DHT22;21661;50.794;-1.066;2023-02-08T01:00:15;4.00;99.90
35559;DHT22;21661;50.794;-1.066;2023-02-08T01:02:41;4.10;99.90
35559;DHT22;21661;50.794;-1.066;2023-02-08T01:05:07;4.00;99.90
35559;DHT22;21661;50.794;-1.066;2023-02-08T01:07:35;3.90;99.90
35559;DHT22;21661;50.794;-1.066;2023-02-08T01:10:02;3.90;99.90
35559;DHT22;21661;50.794;-1.066;2023-02-08T01:12:28;3.80;99.90
35559;DHT22;21661;50.794;-1.066;2023-02-08T01:14:53;3.70;99.90
35559;DHT22;21661;50.794;-1.066;2023-02-08T01:17:19;3.70;99.90
35559;DHT22;21661;50.794;-1.066;2023-02-08T01:19:44;3.60;99.90
35559;DHT22;21661;50.794;-1.066;2023-02-08T01:22:10;3.60;99.90
35559;DHT22;21661;50.794;-1.066;2023-02-08T01:24:35;3.60;99.90
35559;DHT22;21661;50.794;-1.066;2023-02-08T01:27:01;3.60;99.90
35559;DHT22;21661;50.794;-1.066;2023-02-08T01:29:27;3.50;99.90
35559;DHT22;21661;50.794;-1.066;2023-02-08T01:31:52;3.50;99.90
35559;DHT22;21661;50.794;-1.066;2023-02-08T01:34:18;3.60;99.90
35559;DHT22;21661;50.794;-1.066;2023-02-08T01:36:43;3.60;99.90
35559;DHT22;21661;50.794;-1.066;2023-02-08T01:39:10;3.60;99.90
35559;DHT22;21661;50.794;-1.066;2023-02-08T01:41:38;3.70;99.90
35559;DHT22;21661;50.794;-1.066;2023-02-08T01:46:42;3.70;99.90
35559;DHT22;21661;50.794;-1.066;2023-02-08T01:51:37;3.70;99.90
35559;DHT22;21661;50.794;-1.066;2023-02-08T01:54:04;3.70;99.90
35559;DHT22;21661;50.794;-1.066;2023-02-08T01:56:37;3.60;99.90
35559;DHT22;21661;50.794;-1.066;2023-02-08T01:59:09;3.70;99.90
35559;DHT22;21661;50.794;-1.066;2023-02-08T02:01:35;3.60;99.90
35559;DHT22;21661;50.794;-1.066;2023-02-08T02:04:04;3.60;99.90
35559;DHT22;21661;50.794;-1.066;2023-02-08T02:06:33;3.60;99.90
35559;DHT22;21661;50.794;-1.066;2023-02-08T02:09:24;3.50;99.90
35559;DHT22;21661;50.794;-1.066;2023-02-08T02:11:52;3.50;99.90
35559;DHT22;21661;50.794;-1.066;2023-02-08T02:14:18;3.50;99.90
35559;DHT22;21661;50.794;-1.066;2023-02-08T02:16:44;3.50;99.90
35559;DHT22;21661;50.794;-1.066;2023-02-08T02:19:19;3.50;99.90
35559;DHT22;21661;50.794;-1.066;2023-02-08T02:38:30;3.50;99.90
35559;DHT22;21661;50.794;-1.066;2023-02-08T02:41:14;3.50;99.90
35559;DHT22;21661;50.794;-1.066;2023-02-08T02:44:04;3.50;99.90
35559;DHT22;21661;50.794;-1.066;2023-02-08T02:46:40;3.50;99.90
35559;DHT22;21661;50.794;-1.066;2023-02-08T02:52:23;3.30;99.90
35559;DHT22;21661;50.794;-1.066;2023-02-08T02:54:53;3.30;99.90
35559;DHT22;21661;50.794;-1.066;2023-02-08T02:57:25;3.20;99.90
35559;DHT22;21661;50.794;-1.066;2023-02-08T02:59:52;3.20;99.90
35559;DHT22;21661;50.794;-1.066;2023-02-08T03:02:17;3.20;99.90
35559;DHT22;21661;50.794;-1.066;2023-02-08T03:04:52;3.30;99.90
35559;DHT22;21661;50.794;-1.066;2023-02-08T03:16:15;3.30;99.90
35559;DHT22;21661;50.794;-1.066;2023-02-08T03:21:00;3.30;99.90
35559;DHT22;21661;50.794;-1.066;2023-02-08T03:23:33;3.30;99.90
35559;DHT22;21661;50.794;-1.066;2023-02-08T03:26:17;3.20;99.90
35559;DHT22;21661;50.794;-1.066;2023-02-08T03:28:55;3.30;99.90
35559;DHT22;21661;50.794;-1.066;2023-02-08T03:33:55;3.30;99.90
35559;DHT22;21661;50.794;-1.066;2023-02-08T03:39:02;3.30;99.90
35559;DHT22;21661;50.794;-1.066;2023-02-08T03:41:32;3.30;99.90
35559;DHT22;21661;50.794;-1.066;2023-02-08T03:44:03;3.30;99.90
35559;DHT22;21661;50.794;-1.066;2023-02-08T03:46:30;3.20;99.90
35559;DHT22;21661;50.794;-1.066;2023-02-08T03:49:01;3.20;99.90
35559;DHT22;21661;50.794;-1.066;2023-02-08T03:51:29;3.10;99.90
35559;DHT22;21661;50.794;-1.066;2023-02-08T03:53:57;3.00;99.90
35559;DHT22;21661;50.794;-1.066;2023-02-08T03:59:19;3.00;99.90
35559;DHT22;21661;50.794;-1.066;2023-02-08T04:01:51;3.00;99.90
35559;DHT22;21661;50.794;-1.066;2023-02-08T04:04:20;3.00;99.90
35559;DHT22;21661;50.794;-1.066;2023-02-08T04:06:46;3.00;99.90
35559;DHT22;21661;50.794;-1.066;2023-02-08T04:09:12;3.00;99.90
35559;DHT22;21661;50.794;-1.066;2023-02-08T04:11:38;3.10;99.90
35559;DHT22;21661;50.794;-1.066;2023-02-08T04:14:03;3.00;99.90
35559;DHT22;21661;50.794;-1.066;2023-02-08T04:16:29;3.10;99.90
35559;DHT22;21661;50.794;-1.066;2023-02-08T04:18:54;3.10;99.90
35559;DHT22;21661;50.794;-1.066;2023-02-08T04:21:20;3.10;99.90
35559;DHT22;21661;50.794;-1.066;2023-02-08T04:23:46;3.00;99.90
35559;DHT22;21661;50.794;-1.066;2023-02-08T04:26:11;3.00;99.90
35559;DHT22;21661;50.794;-1.066;2023-02-08T04:28:37;2.90;99.90
35559;DHT22;21661;50.794;-1.066;2023-02-08T04:31:02;2.90;99.90
35559;DHT22;21661;50.794;-1.066;2023-02-08T04:33:28;2.90;99.90
35559;DHT22;21661;50.794;-1.066;2023-02-08T04:35:54;2.80;99.90
35559;DHT22;21661;50.794;-1.066;2023-02-08T04:38:19;2.80;99.90
35559;DHT22;21661;50.794;-1.066;2023-02-08T04:40:45;2.80;99.90
35559;DHT22;21661;50.794;-1.066;2023-02-08T04:43:10;2.80;99.90
35559;DHT22;21661;50.794;-1.066;2023-02-08T04:45:36;2.90;99.90
35559;DHT22;21661;50.794;-1.066;2023-02-08T04:48:02;2.80;99.90
35559;DHT22;21661;50.794;-1.066;2023-02-08T04:50:28;2.90;99.90
35559;DHT22;21661;50.794;-1.066;2023-02-08T04:52:54;2.90;99.90
35559;DHT22;21661;50.794;-1.066;2023-02-08T04:55:19;2.90;99.90
35559;DHT22;21661;50.794;-1.066;2023-02-08T04:57:45;3.00;99.90
35559;DHT22;21661;50.794;-1.066;2023-02-08T05:00:11;2.90;99.90
35559;DHT22;21661;50.794;-1.066;2023-02-08T05:02:37;2.90;99.90
35559;DHT22;21661;50.794;-1.066;2023-02-08T05:05:02;3.00;99.90
35559;DHT22;21661;50.794;-1.066;2023-02-08T05:07:28;2.90;99.90
35559;DHT22;21661;50.794;-1.066;2023-02-08T05:09:54;3.00;99.90
35559;DHT22;21661;50.794;-1.066;2023-02-08T05:12:19;3.00;99.90
35559;DHT22;21661;50.794;-1.066;2023-02-08T05:14:45;3.00;99.90
35559;DHT22;21661;50.794;-1.066;2023-02-08T05:17:10;3.00;99.90
35559;DHT22;21661;50.794;-1.066;2023-02-08T05:19:36;3.00;99.90
35559;DHT22;21661;50.794;-1.066;2023-02-08T05:22:01;2.90;99.90
35559;DHT22;21661;50.794;-1.066;2023-02-08T05:24:27;2.90;99.90
35559;DHT22;21661;50.794;-1.066;2023-02-08T05:26:53;2.90;99.90
35559;DHT22;21661;50.794;-1.066;2023-02-08T05:29:18;2.90;99.90
35559;DHT22;21661;50.794;-1.066;2023-02-08T05:31:44;2.90;99.90
35559;DHT22;21661;50.794;-1.066;2023-02-08T05:34:10;2.90;99.90
35559;DHT22;21661;50.794;-1.066;2023-02-08T05:36:36;2.80;99.90
35559;DHT22;21661;50.794;-1.066;2023-02-08T05:39:03;2.80;99.90
35559;DHT22;21661;50.794;-1.066;2023-02-08T05:41:29;2.80;99.90
35559;DHT22;21661;50.794;-1.066;2023-02-08T05:43:54;2.80;99.90
35559;DHT22;21661;50.794;-1.066;2023-02-08T05:46:20;2.80;99.90
35559;DHT22;21661;50.794;-1.066;2023-02-08T05:48:46;2.80;99.90
35559;DHT22;21661;50.794;-1.066;2023-02-08T05:51:11;2.70;99.90
35559;DHT22;21661;50.794;-1.066;2023-02-08T05:53:37;2.70;99.90
35559;DHT22;21661;50.794;-1.066;2023-02-08T05:56:03;2.70;99.90
35559;DHT22;21661;50.794;-1.066;2023-02-08T05:58:29;2.70;99.90
35559;DHT22;21661;50.794;-1.066;2023-02-08T06:00:54;2.70;99.90
35559;DHT22;21661;50.794;-1.066;2023-02-08T06:03:20;2.70;99.90
35559;DHT22;21661;50.794;-1.066;2023-02-08T06:05:46;2.70;99.90
35559;DHT22;21661;50.794;-1.066;2023-02-08T06:08:12;2.70;99.90
35559;DHT22;21661;50.794;-1.066;2023-02-08T06:10:37;2.70;99.90
35559;DHT22;21661;50.794;-1.066;2023-02-08T06:13:03;2.60;99.90
35559;DHT22;21661;50.794;-1.066;2023-02-08T06:15:29;2.50;99.90
35559;DHT22;21661;50.794;-1.066;2023-02-08T06:17:55;2.50;99.90
35559;DHT22;21661;50.794;-1.066;2023-02-08T06:20:20;2.50;99.90
35559;DHT22;21661;50.794;-1.066;2023-02-08T06:22:46;2.50;99.90
35559;DHT22;21661;50.794;-1.066;2023-02-08T06:25:12;2.50;99.90
35559;DHT22;21661;50.794;-1.066;2023-02-08T06:27:37;2.50;99.90
35559;DHT22;21661;50.794;-1.066;2023-02-08T06:30:03;2.50;99.90
35559;DHT22;21661;50.794;-1.066;2023-02-08T06:32:29;2.50;99.90
35559;DHT22;21661;50.794;-1.066;2023-02-08T06:34:55;2.50;99.90
35559;DHT22;21661;50.794;-1.066;2023-02-08T06:37:21;2.50;99.90
35559;DHT22;21661;50.794;-1.066;2023-02-08T06:39:46;2.50;99.90
35559;DHT22;21661;50.794;-1.066;2023-02-08T06:42:12;2.50;99.90
35559;DHT22;21661;50.794;-1.066;2023-02-08T06:44:38;2.50;99.90
35559;DHT22;21661;50.794;-1.066;2023-02-08T06:47:03;2.50;99.90
35559;DHT22;21661;50.794;-1.066;2023-02-08T06:49:29;2.60;99.90
35559;DHT22;21661;50.794;-1.066;2023-02-08T06:51:54;2.60;99.90
35559;DHT22;21661;50.794;-1.066;2023-02-08T06:54:20;2.70;99.90
35559;DHT22;21661;50.794;-1.066;2023-02-08T06:56:46;2.60;99.90
35559;DHT22;21661;50.794;-1.066;2023-02-08T06:59:11;2.60;99.90
35559;DHT22;21661;50.794;-1.066;2023-02-08T07:01:37;2.60;99.90
35559;DHT22;21661;50.794;-1.066;2023-02-08T07:04:03;2.50;99.90
35559;DHT22;21661;50.794;-1.066;2023-02-08T07:06:29;2.50;99.90
35559;DHT22;21661;50.794;-1.066;2023-02-08T07:08:54;2.50;99.90
35559;DHT22;21661;50.794;-1.066;2023-02-08T07:11:20;2.60;99.90
35559;DHT22;21661;50.794;-1.066;2023-02-08T07:13:50;2.50;99.90
35559;DHT22;21661;50.794;-1.066;2023-02-08T07:16:17;2.60;99.90
35559;DHT22;21661;50.794;-1.066;2023-02-08T07:18:43;2.60;99.90
35559;DHT22;21661;50.794;-1.066;2023-02-08T07:21:09;2.60;99.90
35559;DHT22;21661;50.794;-1.066;2023-02-08T07:23:37;2.60;99.90
35559;DHT22;21661;50.794;-1.066;2023-02-08T07:26:05;2.50;99.90
35559;DHT22;21661;50.794;-1.066;2023-02-08T07:28:31;2.50;99.90
35559;DHT22;21661;50.794;-1.066;2023-02-08T07:30:57;2.40;99.90
35559;DHT22;21661;50.794;-1.066;2023-02-08T07:33:23;2.40;99.90
35559;DHT22;21661;50.794;-1.066;2023-02-08T07:35:49;2.40;99.90
35559;DHT22;21661;50.794;-1.066;2023-02-08T07:38:15;2.40;99.90
35559;DHT22;21661;50.794;-1.066;2023-02-08T07:40:41;2.50;99.90
35559;DHT22;21661;50.794;-1.066;2023-02-08T07:43:07;2.50;99.90
35559;DHT22;21661;50.794;-1.066;2023-02-08T07:45:33;2.50;99.90
35559;DHT22;21661;50.794;-1.066;2023-02-08T07:47:58;2.50;99.90
35559;DHT22;21661;50.794;-1.066;2023-02-08T07:50:24;2.50;99.90
35559;DHT22;21661;50.794;-1.066;2023-02-08T07:52:49;2.50;99.90
35559;DHT22;21661;50.794;-1.066;2023-02-08T07:55:15;2.60;99.90
35559;DHT22;21661;50.794;-1.066;2023-02-08T07:57:42;2.60;99.90
35559;DHT22;21661;50.794;-1.066;2023-02-08T08:00:09;2.50;99.90
35559;DHT22;21661;50.794;-1.066;2023-02-08T08:02:35;2.50;99.90
35559;DHT22;21661;50.794;-1.066;2023-02-08T08:05:00;2.60;99.90
35559;DHT22;21661;50.794;-1.066;2023-02-08T08:07:26;2.60;99.90
35559;DHT22;21661;50.794;-1.066;2023-02-08T08:09:51;2.70;99.90
35559;DHT22;21661;50.794;-1.066;2023-02-08T08:12:17;2.80;99.90
35559;DHT22;21661;50.794;-1.066;2023-02-08T08:14:42;2.80;99.90
35559;DHT22;21661;50.794;-1.066;2023-02-08T08:17:08;2.80;99.90
35559;DHT22;21661;50.794;-1.066;2023-02-08T08:19:34;2.80;99.90
35559;DHT22;21661;50.794;-1.066;2023-02-08T08:21:59;2.90;99.90
35559;DHT22;21661;50.794;-1.066;2023-02-08T08:24:25;2.90;99.90
35559;DHT22;21661;50.794;-1.066;2023-02-08T08:26:50;2.90;99.90
35559;DHT22;21661;50.794;-1.066;2023-02-08T08:29:16;2.90;99.90
35559;DHT22;21661;50.794;-1.066;2023-02-08T08:31:43;2.90;99.90
35559;DHT22;21661;50.794;-1.066;2023-02-08T08:34:08;2.90;99.90
35559;DHT22;21661;50.794;-1.066;2023-02-08T08:36:34;2.90;99.90
35559;DHT22;21661;50.794;-1.066;2023-02-08T08:39:00;3.00;99.90
35559;DHT22;21661;50.794;-1.066;2023-02-08T08:41:25;3.00;99.90
35559;DHT22;21661;50.794;-1.066;2023-02-08T08:43:52;3.00;99.90
35559;DHT22;21661;50.794;-1.066;2023-02-08T08:46:18;3.00;99.90
35559;DHT22;21661;50.794;-1.066;2023-02-08T08:48:44;3.10;99.90
35559;DHT22;21661;50.794;-1.066;2023-02-08T08:51:10;3.10;99.90
35559;DHT22;21661;50.794;-1.066;2023-02-08T08:53:36;3.20;99.90
35559;DHT22;21661;50.794;-1.066;2023-02-08T08:56:02;3.20;99.90
35559;DHT22;21661;50.794;-1.066;2023-02-08T08:58:28;3.30;99.90
35559;DHT22;21661;50.794;-1.066;2023-02-08T09:00:56;3.30;99.90
35559;DHT22;21661;50.794;-1.066;2023-02-08T09:03:23;3.30;99.90
35559;DHT22;21661;50.794;-1.066;2023-02-08T09:05:49;3.40;99.90
35559;DHT22;21661;50.794;-1.066;2023-02-08T09:08:15;3.40;99.90
35559;DHT22;21661;50.794;-1.066;2023-02-08T09:10:40;3.50;99.90
35559;DHT22;21661;50.794;-1.066;2023-02-08T09:13:06;3.50;99.90
35559;DHT22;21661;50.794;-1.066;2023-02-08T09:15:32;3.60;99.90
35559;DHT22;21661;50.794;-1.066;2023-02-08T09:17:57;3.60;99.90
35559;DHT22;21661;50.794;-1.066;2023-02-08T09:20:23;3.70;99.90
35559;DHT22;21661;50.794;-1.066;2023-02-08T09:22:49;3.70;99.90
35559;DHT22;21661;50.794;-1.066;2023-02-08T09:25:14;3.80;99.90
35559;DHT22;21661;50.794;-1.066;2023-02-08T09:27:40;3.80;99.90
35559;DHT22;21661;50.794;-1.066;2023-02-08T09:30:06;3.90;99.90
35559;DHT22;21661;50.794;-1.066;2023-02-08T09:32:32;4.00;99.90
35559;DHT22;21661;50.794;-1.066;2023-02-08T09:35:05;4.00;99.90
35559;DHT22;21661;50.794;-1.066;2023-02-08T09:37:30;4.10;99.90
35559;DHT22;21661;50.794;-1.066;2023-02-08T09:39:56;4.20;99.90
35559;DHT22;21661;50.794;-1.066;2023-02-08T09:42:26;4.20;99.90
35559;DHT22;21661;50.794;-1.066;2023-02-08T09:47:56;4.30;99.90
35559;DHT22;21661;50.794;-1.066;2023-02-08T09:50:48;4.30;99.90
35559;DHT22;21661;50.794;-1.066;2023-02-08T09:53:36;4.40;99.90
35559;DHT22;21661;50.794;-1.066;2023-02-08T09:56:06;4.40;99.90
35559;DHT22;21661;50.794;-1.066;2023-02-08T09:58:45;4.50;99.90
35559;DHT22;21661;50.794;-1.066;2023-02-08T10:01:25;4.60;99.90
35559;DHT22;21661;50.794;-1.066;2023-02-08T10:06:32;4.60;99.90
35559;DHT22;21661;50.794;-1.066;2023-02-08T10:09:02;4.70;99.90
35559;DHT22;21661;50.794;-1.066;2023-02-08T10:11:42;4.70;99.90
35559;DHT22;21661;50.794;-1.066;2023-02-08T10:33:27;5.10;99.90
35559;DHT22;21661;50.794;-1.066;2023-02-08T10:35:55;5.20;99.90
35559;DHT22;21661;50.794;-1.066;2023-02-08T10:38:27;5.30;99.90
35559;DHT22;21661;50.794;-1.066;2023-02-08T10:40:58;5.40;99.90
35559;DHT22;21661;50.794;-1.066;2023-02-08T10:43:51;5.40;99.90
35559;DHT22;21661;50.794;-1.066;2023-02-08T10:51:46;5.70;99.90
35559;DHT22;21661;50.794;-1.066;2023-02-08T10:54:14;5.80;99.90
35559;DHT22;21661;50.794;-1.066;2023-02-08T10:57:26;5.60;99.90
35559;DHT22;21661;50.794;-1.066;2023-02-08T10:59:50;5.90;99.90
35559;DHT22;21661;50.794;-1.066;2023-02-08T11:02:33;6.00;99.90
35559;DHT22;21661;50.794;-1.066;2023-02-08T11:05:09;6.00;99.90
35559;DHT22;21661;50.794;-1.066;2023-02-08T11:07:35;6.10;99.90
35559;DHT22;21661;50.794;-1.066;2023-02-08T11:10:33;6.20;99.90
35559;DHT22;21661;50.794;-1.066;2023-02-08T11:13:17;6.30;99.90
35559;DHT22;21661;50.794;-1.066;2023-02-08T11:15:54;6.30;99.90
35559;DHT22;21661;50.794;-1.066;2023-02-08T11:18:39;6.40;99.90
35559;DHT22;21661;50.794;-1.066;2023-02-08T11:21:20;6.40;99.90
35559;DHT22;21661;50.794;-1.066;2023-02-08T11:23:50;6.50;99.90
35559;DHT22;21661;50.794;-1.066;2023-02-08T11:26:38;6.50;99.90
35559;DHT22;21661;50.794;-1.066;2023-02-08T11:29:22;6.40;99.90
35559;DHT22;21661;50.794;-1.066;2023-02-08T11:31:56;6.50;99.90
35559;DHT22;21661;50.794;-1.066;2023-02-08T11:34:33;6.50;99.90
35559;DHT22;21661;50.794;-1.066;2023-02-08T11:37:02;6.50;99.90
35559;DHT22;21661;50.794;-1.066;2023-02-08T11:39:54;6.60;99.90
35559;DHT22;21661;50.794;-1.066;2023-02-08T11:42:25;6.60;99.90
35559;DHT22;21661;50.794;-1.066;2023-02-08T11:44:52;6.70;99.90
35559;DHT22;21661;50.794;-1.066;2023-02-08T11:47:24;6.80;99.90
35559;DHT22;21661;50.794;-1.066;2023-02-08T11:49:53;6.80;99.90
35559;DHT22;21661;50.794;-1.066;2023-02-08T11:54:44;6.90;99.90
35559;DHT22;21661;50.794;-1.066;2023-02-08T11:59:40;6.80;99.90
35559;DHT22;21661;50.794;-1.066;2023-02-08T12:02:27;6.90;99.90
35559;DHT22;21661;50.794;-1.066;2023-02-08T12:04:52;6.90;99.90
35559;DHT22;21661;50.794;-1.066;2023-02-08T12:10:15;7.00;99.90
35559;DHT22;21661;50.794;-1.066;2023-02-08T12:12:50;7.00;99.90
35559;DHT22;21661;50.794;-1.066;2023-02-08T12:20:43;7.10;99.90
35559;DHT22;21661;50.794;-1.066;2023-02-08T12:23:35;7.10;99.90
35559;DHT22;21661;50.794;-1.066;2023-02-08T12:35:26;7.10;99.90
35559;DHT22;21661;50.794;-1.066;2023-02-08T12:38:44;7.20;99.90
35559;DHT22;21661;50.794;-1.066;2023-02-08T12:41:22;7.20;99.90
35559;DHT22;21661;50.794;-1.066;2023-02-08T12:44:14;7.30;99.90
35559;DHT22;21661;50.794;-1.066;2023-02-08T12:49:28;7.40;99.90
35559;DHT22;21661;50.794;-1.066;2023-02-08T12:57:23;7.50;99.90
35559;DHT22;21661;50.794;-1.066;2023-02-08T13:00:20;7.50;99.90
35559;DHT22;21661;50.794;-1.066;2023-02-08T13:05:39;7.70;99.90
35559;DHT22;21661;50.794;-1.066;2023-02-08T13:10:46;7.70;99.90
35559;DHT22;21661;50.794;-1.066;2023-02-08T13:13:25;7.70;99.90
35559;DHT22;21661;50.794;-1.066;2023-02-08T13:15:59;7.70;99.90
35559;DHT22;21661;50.794;-1.066;2023-02-08T13:18:33;7.80;99.90
35559;DHT22;21661;50.794;-1.066;2023-02-08T13:21:13;7.80;99.90
35559;DHT22;21661;50.794;-1.066;2023-02-08T13:23:42;7.80;99.90
35559;DHT22;21661;50.794;-1.066;2023-02-08T13:26:16;7.80;99.90
35559;DHT22;21661;50.794;-1.066;2023-02-08T13:28:50;7.80;99.90
35559;DHT22;21661;50.794;-1.066;2023-02-08T13:31:22;7.90;99.90
35559;DHT22;21661;50.794;-1.066;2023-02-08T13:33:52;7.80;99.90
35559;DHT22;21661;50.794;-1.066;2023-02-08T13:36:32;7.80;99.90
35559;DHT22;21661;50.794;-1.066;2023-02-08T13:39:00;7.80;99.90
35559;DHT22;21661;50.794;-1.066;2023-02-08T13:41:27;7.80;99.90
35559;DHT22;21661;50.794;-1.066;2023-02-08T13:46:23;7.80;99.90
35559;DHT22;21661;50.794;-1.066;2023-02-08T13:56:43;7.90;99.90
35559;DHT22;21661;50.794;-1.066;2023-02-08T13:59:37;7.90;99.90
35559;DHT22;21661;50.794;-1.066;2023-02-08T14:04:40;8.00;99.90
35559;DHT22;21661;50.794;-1.066;2023-02-08T14:07:15;7.90;99.90
35559;DHT22;21661;50.794;-1.066;2023-02-08T14:17:30;8.10;99.90
35559;DHT22;21661;50.794;-1.066;2023-02-08T14:20:00;8.10;99.90
35559;DHT22;21661;50.794;-1.066;2023-02-08T14:22:37;8.10;99.90
35559;DHT22;21661;50.794;-1.066;2023-02-08T14:25:14;8.10;99.90
35559;DHT22;21661;50.794;-1.066;2023-02-08T14:27:48;8.10;99.90
35559;DHT22;21661;50.794;-1.066;2023-02-08T14:32:45;8.20;99.90
35559;DHT22;21661;50.794;-1.066;2023-02-08T14:37:43;8.20;99.90
35559;DHT22;21661;50.794;-1.066;2023-02-08T14:42:57;8.20;99.90
35559;DHT22;21661;50.794;-1.066;2023-02-08T14:45:32;8.20;99.90
35559;DHT22;21661;50.794;-1.066;2023-02-08T14:50:35;8.30;99.90
35559;DHT22;21661;50.794;-1.066;2023-02-08T14:55:51;8.20;99.90
35559;DHT22;21661;50.794;-1.066;2023-02-08T14:58:26;8.20;99.90
35559;DHT22;21661;50.794;-1.066;2023-02-08T15:00:54;8.10;99.90
35559;DHT22;21661;50.794;-1.066;2023-02-08T15:03:21;8.00;99.90
35559;DHT22;21661;50.794;-1.066;2023-02-08T15:08:51;8.00;99.90
35559;DHT22;21661;50.794;-1.066;2023-02-08T15:11:24;7.90;99.90
35559;DHT22;21661;50.794;-1.066;2023-02-08T15:13:53;8.00;99.90
35559;DHT22;21661;50.794;-1.066;2023-02-08T15:16:19;7.90;99.90
35559;DHT22;21661;50.794;-1.066;2023-02-08T15:18:46;7.90;99.90
35559;DHT22;21661;50.794;-1.066;2023-02-08T15:21:18;7.90;99.90
35559;DHT22;21661;50.794;-1.066;2023-02-08T15:24:10;7.90;99.90
35559;DHT22;21661;50.794;-1.066;2023-02-08T15:26:46;7.90;99.90
35559;DHT22;21661;50.794;-1.066;2023-02-08T15:29:24;7.90;99.90
35559;DHT22;21661;50.794;-1.066;2023-02-08T15:31:51;7.90;99.90
35559;DHT22;21661;50.794;-1.066;2023-02-08T15:34:19;7.90;99.90
35559;DHT22;21661;50.794;-1.066;2023-02-08T15:36:49;7.80;99.90
35559;DHT22;21661;50.794;-1.066;2023-02-08T15:39:32;7.80;99.90
35559;DHT22;21661;50.794;-1.066;2023-02-08T15:41:58;7.70;99.90
35559;DHT22;21661;50.794;-1.066;2023-02-08T15:44:30;7.70;99.90
35559;DHT22;21661;50.794;-1.066;2023-02-08T15:47:02;7.70;99.90
35559;DHT22;21661;50.794;-1.066;2023-02-08T15:49:37;7.60;99.90
35559;DHT22;21661;50.794;-1.066;2023-02-08T15:52:05;7.60;99.90
35559;DHT22;21661;50.794;-1.066;2023-02-08T15:54:32;7.70;99.90
35559;DHT22;21661;50.794;-1.066;2023-02-08T15:57:06;7.70;99.90
35559;DHT22;21661;50.794;-1.066;2023-02-08T15:59:34;7.70;99.90
35559;DHT22;21661;50.794;-1.066;2023-02-08T16:02:27;7.70;99.90
35559;DHT22;21661;50.794;-1.066;2023-02-08T16:04:54;7.70;99.90
35559;DHT22;21661;50.794;-1.066;2023-02-08T16:09:51;7.60;99.90
35559;DHT22;21661;50.794;-1.066;2023-02-08T16:12:20;7.50;99.90
35559;DHT22;21661;50.794;-1.066;2023-02-08T16:14:47;7.50;99.90
35559;DHT22;21661;50.794;-1.066;2023-02-08T16:19:56;7.40;99.90
35559;DHT22;21661;50.794;-1.066;2023-02-08T16:22:30;7.40;99.90
35559;DHT22;21661;50.794;-1.066;2023-02-08T16:27:50;7.40;99.90
35559;DHT22;21661;50.794;-1.066;2023-02-08T16:30:18;7.30;99.90
35559;DHT22;21661;50.794;-1.066;2023-02-08T16:32:45;7.10;99.90
35559;DHT22;21661;50.794;-1.066;2023-02-08T16:35:26;7.30;99.90
35559;DHT22;21661;50.794;-1.066;2023-02-08T16:37:56;7.30;99.90
35559;DHT22;21661;50.794;-1.066;2023-02-08T16:43:20;7.30;99.90
35559;DHT22;21661;50.794;-1.066;2023-02-08T16:48:53;7.20;99.90
35559;DHT22;21661;50.794;-1.066;2023-02-08T16:51:25;7.20;99.90
35559;DHT22;21661;50.794;-1.066;2023-02-08T16:54:00;7.20;99.90
35559;DHT22;21661;50.794;-1.066;2023-02-08T16:56:26;7.20;99.90
35559;DHT22;21661;50.794;-1.066;2023-02-08T16:58:52;7.20;99.90
35559;DHT22;21661;50.794;-1.066;2023-02-08T17:01:19;7.20;99.90
35559;DHT22;21661;50.794;-1.066;2023-02-08T17:03:46;7.10;99.90
35559;DHT22;21661;50.794;-1.066;2023-02-08T17:06:20;7.00;99.90
35559;DHT22;21661;50.794;-1.066;2023-02-08T17:08:49;7.00;99.90
35559;DHT22;21661;50.794;-1.066;2023-02-08T17:11:15;6.90;99.90
35559;DHT22;21661;50.794;-1.066;2023-02-08T17:13:40;6.80;99.90
35559;DHT22;21661;50.794;-1.066;2023-02-08T17:16:08;6.80;99.90
35559;DHT22;21661;50.794;-1.066;2023-02-08T17:18:34;6.80;99.90
35559;DHT22;21661;50.794;-1.066;2023-02-08T17:21:00;6.80;99.90
35559;DHT22;21661;50.794;-1.066;2023-02-08T17:23:26;6.80;99.90
35559;DHT22;21661;50.794;-1.066;2023-02-08T17:25:52;6.70;99.90
35559;DHT22;21661;50.794;-1.066;2023-02-08T17:28:18;6.80;99.90
35559;DHT22;21661;50.794;-1.066;2023-02-08T17:30:46;6.80;99.90
35559;DHT22;21661;50.794;-1.066;2023-02-08T17:33:12;6.80;99.90
35559;DHT22;21661;50.794;-1.066;2023-02-08T17:35:46;6.70;99.90
35559;DHT22;21661;50.794;-1.066;2023-02-08T17:38:12;6.80;99.90
35559;DHT22;21661;50.794;-1.066;2023-02-08T17:40:40;6.70;99.90
35559;DHT22;21661;50.794;-1.066;2023-02-08T17:43:06;6.70;99.90
35559;DHT22;21661;50.794;-1.066;2023-02-08T17:45:36;6.70;99.90
35559;DHT22;21661;50.794;-1.066;2023-02-08T17:48:03;6.70;99.90
35559;DHT22;21661;50.794;-1.066;2023-02-08T17:50:28;6.70;99.90
35559;DHT22;21661;50.794;-1.066;2023-02-08T17:52:54;6.60;99.90
35559;DHT22;21661;50.794;-1.066;2023-02-08T17:55:20;6.50;99.90
35559;DHT22;21661;50.794;-1.066;2023-02-08T17:57:46;6.50;99.90
35559;DHT22;21661;50.794;-1.066;2023-02-08T18:00:16;6.50;99.90
35559;DHT22;21661;50.794;-1.066;2023-02-08T18:02:49;6.50;99.90
35559;DHT22;21661;50.794;-1.066;2023-02-08T18:05:16;6.40;99.90
35559;DHT22;21661;50.794;-1.066;2023-02-08T18:07:42;6.40;99.90
35559;DHT22;21661;50.794;-1.066;2023-02-08T18:10:09;6.40;99.90
35559;DHT22;21661;50.794;-1.066;2023-02-08T18:12:35;6.40;99.90
35559;DHT22;21661;50.794;-1.066;2023-02-08T18:15:03;6.40;99.90
35559;DHT22;21661;50.794;-1.066;2023-02-08T18:17:30;6.40;99.90
35559;DHT22;21661;50.794;-1.066;2023-02-08T18:19:55;6.30;99.90
35559;DHT22;21661;50.794;-1.066;2023-02-08T18:22:21;6.40;99.90
35559;DHT22;21661;50.794;-1.066;2023-02-08T18:24:47;6.40;99.90